Uppsala, Sweden

10:24 AM CEST on Augusti 24, 2016 (GMT +0200)
Vattholmavägen | | Change Station

Elev 0 ft 59.87 °N, 17.64 °E | Updated 3 minutes ago

Clear
Klart
63.7 °F
Feels Like 63.7 °F
N
1.2
Vind Växlande Vind from Nordlig
Gusts 3.7 miles/tim

Idag
High -- | Low -- °F
--% Chance of Precip.
Yesterday
High -- | Low -- °F
Precip. -- tum
Lufttryck 30.27 tum
Sikt -9999.0 miles
Molnigt
Daggpunkt 59 °F
Luftfuktighet 84%
Rainfall 0.00 tum
Snow Depth Not available.
5:26 AM 8:15 PM
Tredje kvarteret, 59% visible
METAR ESSA 240750Z 08004KT CAVOK 18/11 Q1025 NOSIG
Lufttryck 30.27 tum
Sikt -9999.0 miles
Molnigt
Daggpunkt 59 °F
Luftfuktighet 84%
Rainfall 0.00 tum
Snow Depth Not available.
5:26 AM 8:15 PM
Tredje kvarteret, 59% visible
METAR ESSA 240750Z 08004KT CAVOK 18/11 Q1025 NOSIG

10-Day Weather Forecast

×

Almanac

Astronomi

Aug. 24, 2016 Rise Set
Actual Time
Civil Twilight
Nautical Twilight
Astronomical Twilight
Månen
Length Of Visible Light
Dagens längd
Tomorrow will be .
, % of the Moon is Illuminated

Today's Extremes

Country Highs Country Lows

Community

WunderPhotos

Upload Photos

1,934,560 photos uploaded!

WunderBlog® & News

Nearby

Air Quality

  Air Quality AQ Index Pollutant
Not available.

Snödjup

Station Depth Elevation

Earthquake Activity

Stad Distance Mag. Time & Date
Minimum magnitude displayed is 2.5.

Coastal Water Temperatures

Plats Temperatur

Stations

Nearby Weather Stations

Station Location Temp Vindavkylning Daggpunkt Luftfuktighet Vind Precip. Elev Uppdaterad Type